Terminal Aerodrome Forecast
Issued by NWS Blacksburg, VA

Home | Current Version | Previous Version | Text Only | Print | Product List | Glossary On
Versions: 1 2 3 4 5 6 7 8 9 10 11 12 13 14 15 16 17 18 19 20 21 22 23 24 25 26 27 28 29
000
FTUS41 KRNK 010535
TAFLYH
TAF
KLYH 010535Z 0106/0206 22005KT P6SM OVC250
     FM010900 00000KT P6SM OVC100
     FM011700 18006KT P6SM BKN120
     FM012200 19009KT P6SM BKN050
     FM020300 18009KT P6SM -RA OVC030=

USA.gov is the U.S. government's official web portal to all federal, state and local government web resources and services.